sensor_id;sensor_type;location;lat;lon;timestamp;temperature;humidity
56103;DHT22;41970;48.774;9.280;2022-07-01T00:02:19;17.60;99.90
56103;DHT22;41970;48.774;9.280;2022-07-01T00:04:44;17.60;99.90
56103;DHT22;41970;48.774;9.280;2022-07-01T00:07:10;17.60;99.90
56103;DHT22;41970;48.774;9.280;2022-07-01T00:09:38;17.60;99.90
56103;DHT22;41970;48.774;9.280;2022-07-01T00:12:04;17.80;99.90
56103;DHT22;41970;48.774;9.280;2022-07-01T00:14:32;17.70;99.90
56103;DHT22;41970;48.774;9.280;2022-07-01T00:16:57;17.60;99.90
56103;DHT22;41970;48.774;9.280;2022-07-01T00:19:24;17.60;99.90
56103;DHT22;41970;48.774;9.280;2022-07-01T00:21:53;17.60;99.90
56103;DHT22;41970;48.774;9.280;2022-07-01T00:24:19;17.50;99.90
56103;DHT22;41970;48.774;9.280;2022-07-01T00:26:45;17.50;99.90
56103;DHT22;41970;48.774;9.280;2022-07-01T00:29:11;17.50;99.90
56103;DHT22;41970;48.774;9.280;2022-07-01T00:31:37;17.30;99.90
56103;DHT22;41970;48.774;9.280;2022-07-01T00:34:03;17.40;99.90
56103;DHT22;41970;48.774;9.280;2022-07-01T00:36:29;17.40;99.90
56103;DHT22;41970;48.774;9.280;2022-07-01T00:38:55;17.50;99.90
56103;DHT22;41970;48.774;9.280;2022-07-01T00:41:21;17.60;99.90
56103;DHT22;41970;48.774;9.280;2022-07-01T00:43:47;17.70;99.90
56103;DHT22;41970;48.774;9.280;2022-07-01T00:46:13;17.70;99.90
56103;DHT22;41970;48.774;9.280;2022-07-01T00:48:40;17.70;99.90
56103;DHT22;41970;48.774;9.280;2022-07-01T00:51:07;17.70;99.90
56103;DHT22;41970;48.774;9.280;2022-07-01T00:53:33;17.70;99.90
56103;DHT22;41970;48.774;9.280;2022-07-01T00:55:59;17.70;99.90
56103;DHT22;41970;48.774;9.280;2022-07-01T00:58:27;17.70;99.90
56103;DHT22;41970;48.774;9.280;2022-07-01T01:00:55;17.60;99.90
56103;DHT22;41970;48.774;9.280;2022-07-01T01:03:21;17.60;99.90
56103;DHT22;41970;48.774;9.280;2022-07-01T01:05:49;17.50;99.90
56103;DHT22;41970;48.774;9.280;2022-07-01T01:08:16;17.40;99.90
56103;DHT22;41970;48.774;9.280;2022-07-01T01:10:42;17.30;99.90
56103;DHT22;41970;48.774;9.280;2022-07-01T01:13:08;17.30;99.90
56103;DHT22;41970;48.774;9.280;2022-07-01T01:15:34;17.30;99.90
56103;DHT22;41970;48.774;9.280;2022-07-01T01:18:00;17.30;99.90
56103;DHT22;41970;48.774;9.280;2022-07-01T01:20:35;17.30;99.90
56103;DHT22;41970;48.774;9.280;2022-07-01T01:23:01;17.20;99.90
56103;DHT22;41970;48.774;9.280;2022-07-01T01:25:29;17.20;99.90
56103;DHT22;41970;48.774;9.280;2022-07-01T01:27:54;17.10;99.90
56103;DHT22;41970;48.774;9.280;2022-07-01T01:30:22;17.20;99.90
56103;DHT22;41970;48.774;9.280;2022-07-01T01:32:48;17.30;99.90
56103;DHT22;41970;48.774;9.280;2022-07-01T01:35:16;17.20;99.90
56103;DHT22;41970;48.774;9.280;2022-07-01T01:37:42;17.10;99.90
56103;DHT22;41970;48.774;9.280;2022-07-01T01:40:10;17.20;99.90
56103;DHT22;41970;48.774;9.280;2022-07-01T01:42:40;17.20;99.90
56103;DHT22;41970;48.774;9.280;2022-07-01T01:45:07;17.10;99.90
56103;DHT22;41970;48.774;9.280;2022-07-01T01:47:34;17.10;99.90
56103;DHT22;41970;48.774;9.280;2022-07-01T01:50:01;17.10;99.90
56103;DHT22;41970;48.774;9.280;2022-07-01T01:52:27;17.00;99.90
56103;DHT22;41970;48.774;9.280;2022-07-01T01:54:54;16.90;99.90
56103;DHT22;41970;48.774;9.280;2022-07-01T01:57:21;16.90;99.90
56103;DHT22;41970;48.774;9.280;2022-07-01T01:59:48;17.00;99.90
56103;DHT22;41970;48.774;9.280;2022-07-01T02:02:15;16.80;99.90
56103;DHT22;41970;48.774;9.280;2022-07-01T02:04:41;16.70;99.90
56103;DHT22;41970;48.774;9.280;2022-07-01T02:07:08;16.80;99.90
56103;DHT22;41970;48.774;9.280;2022-07-01T02:09:34;16.80;99.90
56103;DHT22;41970;48.774;9.280;2022-07-01T02:11:59;16.80;99.90
56103;DHT22;41970;48.774;9.280;2022-07-01T02:14:25;16.80;99.90
56103;DHT22;41970;48.774;9.280;2022-07-01T02:16:53;16.70;99.90
56103;DHT22;41970;48.774;9.280;2022-07-01T02:19:19;16.70;99.90
56103;DHT22;41970;48.774;9.280;2022-07-01T02:21:45;16.80;99.90
56103;DHT22;41970;48.774;9.280;2022-07-01T02:24:11;16.80;99.90
56103;DHT22;41970;48.774;9.280;2022-07-01T02:26:37;16.70;99.90
56103;DHT22;41970;48.774;9.280;2022-07-01T02:29:02;16.80;99.90
56103;DHT22;41970;48.774;9.280;2022-07-01T02:31:29;16.90;99.90
56103;DHT22;41970;48.774;9.280;2022-07-01T02:33:55;16.90;99.90
56103;DHT22;41970;48.774;9.280;2022-07-01T02:36:21;16.80;99.90
56103;DHT22;41970;48.774;9.280;2022-07-01T02:38:47;16.80;99.90
56103;DHT22;41970;48.774;9.280;2022-07-01T02:41:13;16.80;99.90
56103;DHT22;41970;48.774;9.280;2022-07-01T02:43:39;16.90;99.90
56103;DHT22;41970;48.774;9.280;2022-07-01T02:46:05;17.00;99.90
56103;DHT22;41970;48.774;9.280;2022-07-01T02:48:30;17.00;99.90
56103;DHT22;41970;48.774;9.280;2022-07-01T02:50:56;16.90;99.90
56103;DHT22;41970;48.774;9.280;2022-07-01T02:53:22;16.80;99.90
56103;DHT22;41970;48.774;9.280;2022-07-01T02:55:48;16.80;99.90
56103;DHT22;41970;48.774;9.280;2022-07-01T02:58:14;16.70;99.90
56103;DHT22;41970;48.774;9.280;2022-07-01T03:00:39;16.80;99.90
56103;DHT22;41970;48.774;9.280;2022-07-01T03:03:05;16.70;99.90
56103;DHT22;41970;48.774;9.280;2022-07-01T03:05:31;16.70;99.90
56103;DHT22;41970;48.774;9.280;2022-07-01T03:07:57;16.80;99.90
56103;DHT22;41970;48.774;9.280;2022-07-01T03:10:23;16.80;99.90
56103;DHT22;41970;48.774;9.280;2022-07-01T03:12:49;16.80;99.90
56103;DHT22;41970;48.774;9.280;2022-07-01T03:15:16;16.80;99.90
56103;DHT22;41970;48.774;9.280;2022-07-01T03:17:45;16.80;99.90
56103;DHT22;41970;48.774;9.280;2022-07-01T03:20:13;16.80;99.90
56103;DHT22;41970;48.774;9.280;2022-07-01T03:22:41;16.80;99.90
56103;DHT22;41970;48.774;9.280;2022-07-01T03:25:08;16.90;99.90
56103;DHT22;41970;48.774;9.280;2022-07-01T03:27:35;16.90;99.90
56103;DHT22;41970;48.774;9.280;2022-07-01T03:30:05;16.90;99.90
56103;DHT22;41970;48.774;9.280;2022-07-01T03:32:32;16.90;99.90
56103;DHT22;41970;48.774;9.280;2022-07-01T03:34:59;16.90;99.90
56103;DHT22;41970;48.774;9.280;2022-07-01T03:37:24;16.90;99.90
56103;DHT22;41970;48.774;9.280;2022-07-01T03:39:51;16.80;99.90
56103;DHT22;41970;48.774;9.280;2022-07-01T03:42:19;16.80;99.90
56103;DHT22;41970;48.774;9.280;2022-07-01T03:44:45;16.90;99.90
56103;DHT22;41970;48.774;9.280;2022-07-01T03:47:11;17.00;99.90
56103;DHT22;41970;48.774;9.280;2022-07-01T03:49:37;17.00;99.90
56103;DHT22;41970;48.774;9.280;2022-07-01T03:52:04;17.00;99.90
56103;DHT22;41970;48.774;9.280;2022-07-01T03:54:30;16.90;99.90
56103;DHT22;41970;48.774;9.280;2022-07-01T03:56:57;16.90;99.90
56103;DHT22;41970;48.774;9.280;2022-07-01T03:59:25;16.80;99.90
56103;DHT22;41970;48.774;9.280;2022-07-01T04:01:52;16.90;99.90
56103;DHT22;41970;48.774;9.280;2022-07-01T04:04:18;16.90;99.90
56103;DHT22;41970;48.774;9.280;2022-07-01T04:06:45;17.00;99.90
56103;DHT22;41970;48.774;9.280;2022-07-01T04:09:14;16.90;99.90
56103;DHT22;41970;48.774;9.280;2022-07-01T04:11:41;16.80;99.90
56103;DHT22;41970;48.774;9.280;2022-07-01T04:14:09;16.80;99.90
56103;DHT22;41970;48.774;9.280;2022-07-01T04:16:35;16.70;99.90
56103;DHT22;41970;48.774;9.280;2022-07-01T04:19:01;16.80;99.90
56103;DHT22;41970;48.774;9.280;2022-07-01T04:21:27;16.60;99.90
56103;DHT22;41970;48.774;9.280;2022-07-01T04:24:11;16.70;99.90
56103;DHT22;41970;48.774;9.280;2022-07-01T04:26:40;16.60;99.90
56103;DHT22;41970;48.774;9.280;2022-07-01T04:29:06;16.50;99.90
56103;DHT22;41970;48.774;9.280;2022-07-01T04:31:34;16.60;99.90
56103;DHT22;41970;48.774;9.280;2022-07-01T04:34:00;16.60;99.90
56103;DHT22;41970;48.774;9.280;2022-07-01T04:36:26;16.50;99.90
56103;DHT22;41970;48.774;9.280;2022-07-01T04:38:52;16.50;99.90
56103;DHT22;41970;48.774;9.280;2022-07-01T04:41:18;16.50;99.90
56103;DHT22;41970;48.774;9.280;2022-07-01T04:44:03;16.40;99.90
56103;DHT22;41970;48.774;9.280;2022-07-01T04:46:29;16.50;99.90
56103;DHT22;41970;48.774;9.280;2022-07-01T04:48:55;16.40;99.90
56103;DHT22;41970;48.774;9.280;2022-07-01T04:51:21;16.40;99.90
56103;DHT22;41970;48.774;9.280;2022-07-01T04:53:47;16.60;99.90
56103;DHT22;41970;48.774;9.280;2022-07-01T04:56:14;16.50;99.90
56103;DHT22;41970;48.774;9.280;2022-07-01T04:58:40;16.40;99.90
56103;DHT22;41970;48.774;9.280;2022-07-01T05:01:06;16.50;99.90
56103;DHT22;41970;48.774;9.280;2022-07-01T05:03:32;16.50;99.90
56103;DHT22;41970;48.774;9.280;2022-07-01T05:05:58;16.50;99.90
56103;DHT22;41970;48.774;9.280;2022-07-01T05:08:24;16.50;99.90
56103;DHT22;41970;48.774;9.280;2022-07-01T05:10:49;16.50;99.90
56103;DHT22;41970;48.774;9.280;2022-07-01T05:13:15;16.40;99.90
56103;DHT22;41970;48.774;9.280;2022-07-01T05:15:41;16.40;99.90
56103;DHT22;41970;48.774;9.280;2022-07-01T05:18:07;16.40;99.90
56103;DHT22;41970;48.774;9.280;2022-07-01T05:20:51;16.40;99.90
56103;DHT22;41970;48.774;9.280;2022-07-01T05:23:35;16.40;99.90
56103;DHT22;41970;48.774;9.280;2022-07-01T05:26:02;16.60;99.90
56103;DHT22;41970;48.774;9.280;2022-07-01T05:28:28;16.60;99.90
56103;DHT22;41970;48.774;9.280;2022-07-01T05:30:54;16.50;99.90
56103;DHT22;41970;48.774;9.280;2022-07-01T05:33:20;16.30;99.90
56103;DHT22;41970;48.774;9.280;2022-07-01T05:35:49;16.30;99.90
56103;DHT22;41970;48.774;9.280;2022-07-01T05:38:15;16.30;99.90
56103;DHT22;41970;48.774;9.280;2022-07-01T05:40:41;16.30;99.90
56103;DHT22;41970;48.774;9.280;2022-07-01T05:43:07;16.30;99.90
56103;DHT22;41970;48.774;9.280;2022-07-01T05:45:33;16.30;99.90
56103;DHT22;41970;48.774;9.280;2022-07-01T05:47:58;16.30;99.90
56103;DHT22;41970;48.774;9.280;2022-07-01T05:50:24;16.30;99.90
56103;DHT22;41970;48.774;9.280;2022-07-01T05:52:50;16.20;99.90
56103;DHT22;41970;48.774;9.280;2022-07-01T05:55:16;16.30;99.90
56103;DHT22;41970;48.774;9.280;2022-07-01T05:57:42;16.30;99.90
56103;DHT22;41970;48.774;9.280;2022-07-01T06:00:08;16.20;99.90
56103;DHT22;41970;48.774;9.280;2022-07-01T06:02:37;16.10;99.90
56103;DHT22;41970;48.774;9.280;2022-07-01T06:05:04;16.20;99.90
56103;DHT22;41970;48.774;9.280;2022-07-01T06:07:30;16.30;99.90
56103;DHT22;41970;48.774;9.280;2022-07-01T06:09:56;16.30;99.90
56103;DHT22;41970;48.774;9.280;2022-07-01T06:12:22;16.40;99.90
56103;DHT22;41970;48.774;9.280;2022-07-01T06:14:52;16.40;99.90
56103;DHT22;41970;48.774;9.280;2022-07-01T06:17:45;16.40;99.90
56103;DHT22;41970;48.774;9.280;2022-07-01T06:20:20;16.40;99.90
56103;DHT22;41970;48.774;9.280;2022-07-01T06:23:01;16.30;99.90
56103;DHT22;41970;48.774;9.280;2022-07-01T06:25:27;16.20;99.90
56103;DHT22;41970;48.774;9.280;2022-07-01T06:27:53;16.00;99.90
56103;DHT22;41970;48.774;9.280;2022-07-01T06:30:19;16.00;99.90
56103;DHT22;41970;48.774;9.280;2022-07-01T06:32:45;16.20;99.90
56103;DHT22;41970;48.774;9.280;2022-07-01T06:35:10;16.20;99.90
56103;DHT22;41970;48.774;9.280;2022-07-01T06:37:36;16.30;99.90
56103;DHT22;41970;48.774;9.280;2022-07-01T06:40:06;16.30;99.90
56103;DHT22;41970;48.774;9.280;2022-07-01T06:42:34;16.30;99.90
56103;DHT22;41970;48.774;9.280;2022-07-01T06:45:00;16.30;99.90
56103;DHT22;41970;48.774;9.280;2022-07-01T06:47:26;16.40;99.90
56103;DHT22;41970;48.774;9.280;2022-07-01T06:49:52;16.40;99.90
56103;DHT22;41970;48.774;9.280;2022-07-01T06:52:18;16.40;99.90
56103;DHT22;41970;48.774;9.280;2022-07-01T06:54:44;16.40;99.90
56103;DHT22;41970;48.774;9.280;2022-07-01T06:57:10;16.40;99.90
56103;DHT22;41970;48.774;9.280;2022-07-01T06:59:36;16.50;99.90
56103;DHT22;41970;48.774;9.280;2022-07-01T07:02:02;16.50;99.90
56103;DHT22;41970;48.774;9.280;2022-07-01T07:04:30;16.40;99.90
56103;DHT22;41970;48.774;9.280;2022-07-01T07:06:56;16.40;99.90
56103;DHT22;41970;48.774;9.280;2022-07-01T07:09:22;16.50;99.90
56103;DHT22;41970;48.774;9.280;2022-07-01T07:11:48;16.50;99.90
56103;DHT22;41970;48.774;9.280;2022-07-01T07:14:14;16.60;99.90
56103;DHT22;41970;48.774;9.280;2022-07-01T07:16:41;16.50;99.90
56103;DHT22;41970;48.774;9.280;2022-07-01T07:19:06;16.50;99.90
56103;DHT22;41970;48.774;9.280;2022-07-01T07:21:33;16.40;99.90
56103;DHT22;41970;48.774;9.280;2022-07-01T07:23:59;16.40;99.90
56103;DHT22;41970;48.774;9.280;2022-07-01T07:26:25;16.40;99.90
56103;DHT22;41970;48.774;9.280;2022-07-01T07:28:51;16.30;99.90
56103;DHT22;41970;48.774;9.280;2022-07-01T07:31:16;16.30;99.90
56103;DHT22;41970;48.774;9.280;2022-07-01T07:33:42;16.30;99.90
56103;DHT22;41970;48.774;9.280;2022-07-01T07:36:08;16.30;99.90
56103;DHT22;41970;48.774;9.280;2022-07-01T07:38:37;16.30;99.90
56103;DHT22;41970;48.774;9.280;2022-07-01T07:41:03;16.40;99.90
56103;DHT22;41970;48.774;9.280;2022-07-01T07:43:30;16.30;99.90
56103;DHT22;41970;48.774;9.280;2022-07-01T07:45:56;16.40;99.90
56103;DHT22;41970;48.774;9.280;2022-07-01T07:48:22;16.50;99.90
56103;DHT22;41970;48.774;9.280;2022-07-01T07:50:48;16.60;99.90
56103;DHT22;41970;48.774;9.280;2022-07-01T07:53:14;16.60;99.90
56103;DHT22;41970;48.774;9.280;2022-07-01T07:55:40;16.40;99.90
56103;DHT22;41970;48.774;9.280;2022-07-01T07:58:07;16.30;99.90
56103;DHT22;41970;48.774;9.280;2022-07-01T08:00:33;16.30;99.90
56103;DHT22;41970;48.774;9.280;2022-07-01T08:02:59;16.40;99.90
56103;DHT22;41970;48.774;9.280;2022-07-01T08:05:25;16.50;99.90
56103;DHT22;41970;48.774;9.280;2022-07-01T08:07:51;16.60;99.90
56103;DHT22;41970;48.774;9.280;2022-07-01T08:10:17;16.50;99.90
56103;DHT22;41970;48.774;9.280;2022-07-01T08:12:42;16.30;99.90
56103;DHT22;41970;48.774;9.280;2022-07-01T08:15:09;16.30;99.90
56103;DHT22;41970;48.774;9.280;2022-07-01T08:17:35;16.30;99.90
56103;DHT22;41970;48.774;9.280;2022-07-01T08:20:01;16.30;99.90
56103;DHT22;41970;48.774;9.280;2022-07-01T08:22:27;16.40;99.90
56103;DHT22;41970;48.774;9.280;2022-07-01T08:24:53;16.50;99.90
56103;DHT22;41970;48.774;9.280;2022-07-01T08:27:19;16.50;99.90
56103;DHT22;41970;48.774;9.280;2022-07-01T08:29:45;16.50;99.90
56103;DHT22;41970;48.774;9.280;2022-07-01T08:32:11;16.50;99.90
56103;DHT22;41970;48.774;9.280;2022-07-01T08:34:37;16.60;99.90
56103;DHT22;41970;48.774;9.280;2022-07-01T08:37:04;16.60;99.90
56103;DHT22;41970;48.774;9.280;2022-07-01T08:39:30;16.60;99.90
56103;DHT22;41970;48.774;9.280;2022-07-01T08:41:56;16.70;99.90
56103;DHT22;41970;48.774;9.280;2022-07-01T08:44:22;16.70;99.90
56103;DHT22;41970;48.774;9.280;2022-07-01T08:46:48;16.80;99.90
56103;DHT22;41970;48.774;9.280;2022-07-01T08:49:15;16.90;99.90
56103;DHT22;41970;48.774;9.280;2022-07-01T08:51:42;17.00;99.90
56103;DHT22;41970;48.774;9.280;2022-07-01T08:54:07;17.00;99.90
56103;DHT22;41970;48.774;9.280;2022-07-01T08:56:33;17.00;99.90
56103;DHT22;41970;48.774;9.280;2022-07-01T08:59:22;17.00;99.90
56103;DHT22;41970;48.774;9.280;2022-07-01T09:01:55;17.10;99.90
56103;DHT22;41970;48.774;9.280;2022-07-01T09:04:22;17.00;99.90
56103;DHT22;41970;48.774;9.280;2022-07-01T09:06:48;16.90;99.90
56103;DHT22;41970;48.774;9.280;2022-07-01T09:09:23;17.00;99.90
56103;DHT22;41970;48.774;9.280;2022-07-01T09:11:50;17.00;99.90
56103;DHT22;41970;48.774;9.280;2022-07-01T09:14:21;17.00;99.90
56103;DHT22;41970;48.774;9.280;2022-07-01T09:16:49;16.90;99.90
56103;DHT22;41970;48.774;9.280;2022-07-01T09:19:18;16.90;99.90
56103;DHT22;41970;48.774;9.280;2022-07-01T09:26:56;16.80;99.90
56103;DHT22;41970;48.774;9.280;2022-07-01T09:29:33;16.90;99.90
56103;DHT22;41970;48.774;9.280;2022-07-01T09:32:01;16.70;99.90
56103;DHT22;41970;48.774;9.280;2022-07-01T09:34:36;16.60;99.90
56103;DHT22;41970;48.774;9.280;2022-07-01T09:37:10;16.60;99.90
56103;DHT22;41970;48.774;9.280;2022-07-01T09:39:47;16.60;99.90
56103;DHT22;41970;48.774;9.280;2022-07-01T09:42:15;16.60;99.90
56103;DHT22;41970;48.774;9.280;2022-07-01T09:44:59;16.60;99.90
56103;DHT22;41970;48.774;9.280;2022-07-01T09:47:28;16.50;99.90
56103;DHT22;41970;48.774;9.280;2022-07-01T09:49:55;16.50;99.90
56103;DHT22;41970;48.774;9.280;2022-07-01T09:52:22;16.50;99.90
56103;DHT22;41970;48.774;9.280;2022-07-01T09:54:51;16.50;99.90
56103;DHT22;41970;48.774;9.280;2022-07-01T09:57:22;16.40;99.90
56103;DHT22;41970;48.774;9.280;2022-07-01T09:59:50;16.50;99.90
56103;DHT22;41970;48.774;9.280;2022-07-01T10:02:18;16.40;99.90
56103;DHT22;41970;48.774;9.280;2022-07-01T10:05:06;16.40;99.90
56103;DHT22;41970;48.774;9.280;2022-07-01T10:07:42;16.30;99.90
56103;DHT22;41970;48.774;9.280;2022-07-01T10:12:55;16.40;99.90
56103;DHT22;41970;48.774;9.280;2022-07-01T10:15:22;16.50;99.90
56103;DHT22;41970;48.774;9.280;2022-07-01T10:17:51;16.40;99.90
56103;DHT22;41970;48.774;9.280;2022-07-01T10:20:28;16.40;99.90
56103;DHT22;41970;48.774;9.280;2022-07-01T10:23:05;16.50;99.90
56103;DHT22;41970;48.774;9.280;2022-07-01T10:25:51;16.40;99.90
56103;DHT22;41970;48.774;9.280;2022-07-01T10:28:49;16.40;99.90
56103;DHT22;41970;48.774;9.280;2022-07-01T10:31:18;16.40;99.90
56103;DHT22;41970;48.774;9.280;2022-07-01T10:44:03;17.00;99.90
56103;DHT22;41970;48.774;9.280;2022-07-01T10:46:43;17.00;99.90
56103;DHT22;41970;48.774;9.280;2022-07-01T10:49:11;16.90;99.90
56103;DHT22;41970;48.774;9.280;2022-07-01T10:51:54;16.90;99.90
56103;DHT22;41970;48.774;9.280;2022-07-01T10:59:46;17.30;99.90
56103;DHT22;41970;48.774;9.280;2022-07-01T11:02:17;17.40;99.90
56103;DHT22;41970;48.774;9.280;2022-07-01T11:04:44;17.50;99.90
56103;DHT22;41970;48.774;9.280;2022-07-01T11:07:10;17.70;99.90
56103;DHT22;41970;48.774;9.280;2022-07-01T11:09:37;17.80;99.90
56103;DHT22;41970;48.774;9.280;2022-07-01T11:12:04;17.80;99.90
56103;DHT22;41970;48.774;9.280;2022-07-01T11:14:34;17.90;99.90
56103;DHT22;41970;48.774;9.280;2022-07-01T11:17:02;18.10;99.90
56103;DHT22;41970;48.774;9.280;2022-07-01T11:19:28;18.20;99.90
56103;DHT22;41970;48.774;9.280;2022-07-01T11:21:55;18.10;99.90
56103;DHT22;41970;48.774;9.280;2022-07-01T11:24:22;18.10;99.90
56103;DHT22;41970;48.774;9.280;2022-07-01T11:27:16;18.20;99.90
56103;DHT22;41970;48.774;9.280;2022-07-01T11:29:44;18.30;99.90
56103;DHT22;41970;48.774;9.280;2022-07-01T11:32:10;18.10;99.90
56103;DHT22;41970;48.774;9.280;2022-07-01T11:34:36;18.20;99.90
56103;DHT22;41970;48.774;9.280;2022-07-01T11:37:09;18.20;99.90
56103;DHT22;41970;48.774;9.280;2022-07-01T11:40:11;18.10;99.90
56103;DHT22;41970;48.774;9.280;2022-07-01T11:42:39;18.00;99.90
56103;DHT22;41970;48.774;9.280;2022-07-01T11:45:06;18.10;99.90
56103;DHT22;41970;48.774;9.280;2022-07-01T11:47:32;18.10;99.90
56103;DHT22;41970;48.774;9.280;2022-07-01T11:49:59;17.90;99.90
56103;DHT22;41970;48.774;9.280;2022-07-01T11:52:28;17.80;99.90
56103;DHT22;41970;48.774;9.280;2022-07-01T11:54:56;17.80;99.90
56103;DHT22;41970;48.774;9.280;2022-07-01T11:57:25;17.90;99.90
56103;DHT22;41970;48.774;9.280;2022-07-01T11:59:54;17.80;99.90
56103;DHT22;41970;48.774;9.280;2022-07-01T12:02:22;17.60;99.90
56103;DHT22;41970;48.774;9.280;2022-07-01T12:04:50;17.50;99.90
56103;DHT22;41970;48.774;9.280;2022-07-01T12:07:20;17.50;99.90
56103;DHT22;41970;48.774;9.280;2022-07-01T12:09:47;17.40;99.90
56103;DHT22;41970;48.774;9.280;2022-07-01T12:12:19;17.40;99.90
56103;DHT22;41970;48.774;9.280;2022-07-01T12:14:56;17.40;99.90
56103;DHT22;41970;48.774;9.280;2022-07-01T12:17:24;17.40;99.90
56103;DHT22;41970;48.774;9.280;2022-07-01T12:19:51;17.50;99.90
56103;DHT22;41970;48.774;9.280;2022-07-01T12:22:22;17.80;99.90
56103;DHT22;41970;48.774;9.280;2022-07-01T12:24:50;18.10;99.90
56103;DHT22;41970;48.774;9.280;2022-07-01T12:27:16;18.40;99.90
56103;DHT22;41970;48.774;9.280;2022-07-01T12:29:51;18.40;99.90
56103;DHT22;41970;48.774;9.280;2022-07-01T12:35:02;18.70;98.10
56103;DHT22;41970;48.774;9.280;2022-07-01T12:37:31;18.40;98.10
56103;DHT22;41970;48.774;9.280;2022-07-01T12:40:05;18.40;98.60
56103;DHT22;41970;48.774;9.280;2022-07-01T12:42:37;18.70;98.40
56103;DHT22;41970;48.774;9.280;2022-07-01T12:45:12;18.90;97.10
56103;DHT22;41970;48.774;9.280;2022-07-01T12:47:43;19.20;97.30
56103;DHT22;41970;48.774;9.280;2022-07-01T12:50:29;19.50;96.80
56103;DHT22;41970;48.774;9.280;2022-07-01T12:55:45;18.90;98.10
56103;DHT22;41970;48.774;9.280;2022-07-01T12:58:31;18.50;97.80
56103;DHT22;41970;48.774;9.280;2022-07-01T13:00:58;18.50;99.40
56103;DHT22;41970;48.774;9.280;2022-07-01T13:03:26;18.50;98.00
56103;DHT22;41970;48.774;9.280;2022-07-01T13:05:53;18.30;98.20
56103;DHT22;41970;48.774;9.280;2022-07-01T13:08:20;18.30;99.10
56103;DHT22;41970;48.774;9.280;2022-07-01T13:10:47;18.40;98.30
56103;DHT22;41970;48.774;9.280;2022-07-01T13:13:14;18.40;98.90
56103;DHT22;41970;48.774;9.280;2022-07-01T13:15:41;18.40;98.90
56103;DHT22;41970;48.774;9.280;2022-07-01T13:18:07;18.50;99.10
56103;DHT22;41970;48.774;9.280;2022-07-01T13:20:34;18.30;99.90
56103;DHT22;41970;48.774;9.280;2022-07-01T13:23:00;18.10;99.90
56103;DHT22;41970;48.774;9.280;2022-07-01T13:25:26;18.10;99.90
56103;DHT22;41970;48.774;9.280;2022-07-01T13:27:53;18.00;99.90
56103;DHT22;41970;48.774;9.280;2022-07-01T13:30:19;18.00;99.90
56103;DHT22;41970;48.774;9.280;2022-07-01T13:32:45;17.90;99.90
56103;DHT22;41970;48.774;9.280;2022-07-01T13:35:12;17.90;99.90
56103;DHT22;41970;48.774;9.280;2022-07-01T13:37:39;17.80;99.90
56103;DHT22;41970;48.774;9.280;2022-07-01T13:40:07;17.90;99.90
56103;DHT22;41970;48.774;9.280;2022-07-01T13:42:33;18.10;99.90
56103;DHT22;41970;48.774;9.280;2022-07-01T13:44:59;18.10;99.70
56103;DHT22;41970;48.774;9.280;2022-07-01T13:47:25;18.10;99.90
56103;DHT22;41970;48.774;9.280;2022-07-01T13:49:51;18.20;99.90
56103;DHT22;41970;48.774;9.280;2022-07-01T13:52:17;18.30;98.10
56103;DHT22;41970;48.774;9.280;2022-07-01T13:54:43;18.40;98.10
56103;DHT22;41970;48.774;9.280;2022-07-01T13:57:09;18.70;98.20
56103;DHT22;41970;48.774;9.280;2022-07-01T13:59:35;18.80;98.10
56103;DHT22;41970;48.774;9.280;2022-07-01T14:02:00;18.90;97.10
56103;DHT22;41970;48.774;9.280;2022-07-01T14:04:26;19.00;96.60
56103;DHT22;41970;48.774;9.280;2022-07-01T14:06:52;19.00;96.80
56103;DHT22;41970;48.774;9.280;2022-07-01T14:09:19;19.30;96.60
56103;DHT22;41970;48.774;9.280;2022-07-01T14:11:46;19.30;96.80
56103;DHT22;41970;48.774;9.280;2022-07-01T14:14:12;18.90;96.10
56103;DHT22;41970;48.774;9.280;2022-07-01T14:16:38;19.00;96.80
56103;DHT22;41970;48.774;9.280;2022-07-01T14:19:04;19.00;97.10
56103;DHT22;41970;48.774;9.280;2022-07-01T14:21:30;18.90;96.50
56103;DHT22;41970;48.774;9.280;2022-07-01T14:23:56;18.90;97.50
56103;DHT22;41970;48.774;9.280;2022-07-01T14:26:22;18.90;97.20
56103;DHT22;41970;48.774;9.280;2022-07-01T14:28:48;19.00;97.60
56103;DHT22;41970;48.774;9.280;2022-07-01T14:31:14;19.00;97.40
56103;DHT22;41970;48.774;9.280;2022-07-01T14:33:40;19.00;97.20
56103;DHT22;41970;48.774;9.280;2022-07-01T14:36:06;19.00;97.70
56103;DHT22;41970;48.774;9.280;2022-07-01T14:38:32;19.20;97.60
56103;DHT22;41970;48.774;9.280;2022-07-01T14:40:58;19.10;96.50
56103;DHT22;41970;48.774;9.280;2022-07-01T14:43:24;19.10;96.80
56103;DHT22;41970;48.774;9.280;2022-07-01T14:45:50;19.20;97.20
56103;DHT22;41970;48.774;9.280;2022-07-01T14:48:16;19.30;97.60
56103;DHT22;41970;48.774;9.280;2022-07-01T14:50:42;19.40;96.40
56103;DHT22;41970;48.774;9.280;2022-07-01T14:53:09;19.60;95.40
56103;DHT22;41970;48.774;9.280;2022-07-01T14:55:35;19.60;95.30
56103;DHT22;41970;48.774;9.280;2022-07-01T14:58:01;19.70;94.80
56103;DHT22;41970;48.774;9.280;2022-07-01T15:00:27;20.00;94.20
56103;DHT22;41970;48.774;9.280;2022-07-01T15:02:55;20.00;94.70
56103;DHT22;41970;48.774;9.280;2022-07-01T15:05:24;19.80;94.40
56103;DHT22;41970;48.774;9.280;2022-07-01T15:07:50;19.80;94.60
56103;DHT22;41970;48.774;9.280;2022-07-01T15:10:16;20.10;94.70
56103;DHT22;41970;48.774;9.280;2022-07-01T15:12:44;20.20;94.10
56103;DHT22;41970;48.774;9.280;2022-07-01T15:15:10;20.40;94.40
56103;DHT22;41970;48.774;9.280;2022-07-01T15:17:46;20.40;93.80
56103;DHT22;41970;48.774;9.280;2022-07-01T15:20:13;20.60;94.20
56103;DHT22;41970;48.774;9.280;2022-07-01T15:22:40;20.70;93.40
56103;DHT22;41970;48.774;9.280;2022-07-01T15:25:07;20.60;94.30
56103;DHT22;41970;48.774;9.280;2022-07-01T15:27:34;20.60;93.90
56103;DHT22;41970;48.774;9.280;2022-07-01T15:30:03;20.80;92.80
56103;DHT22;41970;48.774;9.280;2022-07-01T15:32:32;21.00;92.30
56103;DHT22;41970;48.774;9.280;2022-07-01T15:34:58;21.10;92.30
56103;DHT22;41970;48.774;9.280;2022-07-01T15:37:24;21.20;92.00
56103;DHT22;41970;48.774;9.280;2022-07-01T15:39:49;21.00;92.70
56103;DHT22;41970;48.774;9.280;2022-07-01T15:42:16;20.90;92.60
56103;DHT22;41970;48.774;9.280;2022-07-01T15:44:42;21.00;92.70
56103;DHT22;41970;48.774;9.280;2022-07-01T15:47:08;21.00;92.20
56103;DHT22;41970;48.774;9.280;2022-07-01T15:49:52;21.10;92.30
56103;DHT22;41970;48.774;9.280;2022-07-01T15:52:21;20.90;92.70
56103;DHT22;41970;48.774;9.280;2022-07-01T15:54:47;21.00;92.60
56103;DHT22;41970;48.774;9.280;2022-07-01T15:57:13;21.00;92.30
56103;DHT22;41970;48.774;9.280;2022-07-01T15:59:39;21.00;92.00
56103;DHT22;41970;48.774;9.280;2022-07-01T16:02:05;21.10;91.80
56103;DHT22;41970;48.774;9.280;2022-07-01T16:04:34;21.20;91.70